AirNav   Air Wisconsin Up To $57,000 Bonus
 
 681 users online  

2TX9 Buzzard Creek Airstrip
San Saba, Texas, USA

GOING TO SAN SABA?


FAA INFORMATION EFFECTIVE 05 DECEMBER 2019

Location

FAA Identifier: 2TX9
Lat/Long: 31-19-40.1300N 098-48-17.1700W
31-19.668833N 098-48.286167W
31.3278139,-98.8047694
(estimated)
Elevation: 1309 ft. / 399 m
From city: 10 miles NW of SAN SABA, TX
Time zone: UTC -6 (UTC -5 during Daylight Saving Time)
Zip code: 76871

Airport Operations

Airport use: Private use. Permission required prior to landing
Activation date: 04/2015
Control tower: no
ARTCC: HOUSTON CENTER
FSS: SAN ANGELO FLIGHT SERVICE STATION
Attendance: 
Wind indicator: yes
Segmented circle: no

Airport Communications

WX AWOS-3 at 81R (7 nm SE): PHONE 325-372-6027

Nearby radio navigation aids

VOR radial/distance  VOR name  Freq  Var
LLOr350/31.9LLANO VORTAC108.2008E
BWDr159/34.8BROWNWOOD VOR/DME108.6008E
AGJr279/35.1GOOCH SPRINGS VORTAC112.5005E

Airport Services

Runway Information

Runway 16/34

Dimensions: 2655 x 80 ft. / 809 x 24 m
Surface: turf
RUNWAY 16  RUNWAY 34
Traffic pattern: leftright

Airport Ownership and Management from official FAA records

Ownership: Privately-owned
Owner: DAVID B. AND KAREN M. GILL
210 SOUTH LOIS LANE
RICHARDSON, TX 75081
Phone 214-534-2791
Manager: DAVID B. GILL
210 SOUTH LOIS LANE
RICHARDSON, TX 75081
Phone 214-534-2791

Additional Remarks

FOR CD CTC HOUSTON ARTCC AT 281-230-5622.

Instrument Procedures

There are no published instrument procedures at 2TX9.

Some nearby airports with instrument procedures:

KBBD - Curtis Field Airport (28 nm W)
KBWD - Brownwood Regional Airport (29 nm N)
KAQO - Llano Municipal Airport (33 nm S)
KLZZ - Lampasas Airport (34 nm SE)
KMKN - Comanche County-City Airport (37 nm N)
 
Loc | Ops | Rwys | IFR | FBO | Links
Com | Nav | Svcs | Stats | Notes
Aerial photo
No photo
 
Airport distance calculator
Flying to Buzzard Creek Airstrip? Find the distance to fly.

From to 2TX9

Sunrise and sunset
Times for 09-Dec-2019
 Local
(UTC-6)
 Zulu
(UTC)
Morning civil twilight06:5712:57
Sunrise07:2413:24
Sunset17:3223:32
Evening civil twilight17:5823:58

Current date and time
Zulu (UTC)  09-Dec-2019 08:32:45
Local (UTC-6)  09-Dec-2019 02:32:45
 
METAR
KBBD 
28nm W 
090815Z AUTO 23007KT 10SM CLR 16/12 A2984 RMK AO2
KBWD 
29nm N 
090815Z AUTO 17003KT 10SM CLR 15/10 A2983 RMK AO1
KAQO 
33nm S 
090815Z AUTO 00000KT 10SM CLR 13/10 A2987 RMK AO2 PWINO
KMKN 
37nm N 
090815Z AUTO 22012G15KT 10SM CLR 17/12 A2981 RMK AO2 T01740120
KMNZ 
39nm NE 
090815Z AUTO 24010KT 10SM CLR 17/12 A2983 RMK AO2 T01660118
KCOM 
43nm NW 
090815Z AUTO 24009KT 10SM CLR 17/11 A2984 RMK AO2 T01660105
KBMQ 
46nm SE 
090753Z AUTO 22003KT 10SM CLR 15/13 A2988 RMK AO2 SLP105 T01500128 $
TAF
KBBD 
28nm W 
090520Z 0906/1006 23009KT P6SM BKN150 FM091800 28008KT P6SM OVC100 FM092100 33011KT P6SM OVC100 FM100100 35014G21KT P6SM OVC100
NOTAMs
Click for the latest NOTAMs
NOTAMs are issued by the DoD/FAA and will open in a separate window not controlled by AirNav.

 

 
 

Would you like to see your business listed on this page?

 If your business provides an interesting product or service to pilots, flight crews, aircraft, or users of the Buzzard Creek Airstrip, you should consider listing it here.  To start the listing process, click on the button below
 
Add a business
 

Other Pages about Buzzard Creek Airstrip

Update a link
 
Copyright © AirNav, LLC. All rights reserved. Privacy Policy  Contact